createdAt,value
2019-04-14T00:02:05.278Z,16.87
2019-04-14T00:04:35.778Z,17.55
2019-04-14T00:07:05.734Z,16.85
2019-04-14T00:09:35.792Z,16.35
2019-04-14T00:12:07.458Z,16.27
2019-04-14T00:14:35.946Z,17.02
2019-04-14T00:17:05.423Z,15.75
2019-04-14T00:19:35.242Z,16.07
2019-04-14T00:22:05.176Z,13.58
2019-04-14T00:24:34.211Z,13.88
2019-04-14T00:27:04.149Z,16.05
2019-04-14T00:29:33.028Z,18.23
2019-04-14T00:32:02.965Z,17.90
2019-04-14T00:34:46.366Z,17.53
2019-04-14T00:37:16.797Z,18.03
2019-04-14T00:39:53.425Z,17.32
2019-04-14T00:42:34.098Z,16.62
2019-04-14T00:45:04.998Z,18.00
2019-04-14T00:47:49.251Z,17.87
2019-04-14T00:50:07.886Z,16.48
2019-04-14T00:52:37.265Z,17.25
2019-04-14T00:55:07.860Z,17.10
2019-04-14T00:57:37.641Z,18.35
2019-04-14T01:00:08.256Z,16.60
2019-04-14T01:02:38.466Z,18.10
2019-04-14T01:05:08.831Z,16.63
2019-04-14T01:07:37.703Z,16.95
2019-04-14T01:10:08.078Z,17.90
2019-04-14T01:12:36.993Z,17.30
2019-04-14T01:15:07.159Z,16.87
2019-04-14T01:17:35.984Z,19.60
2019-04-14T01:20:05.687Z,18.03
2019-04-14T01:22:34.368Z,17.55
2019-04-14T01:25:04.253Z,17.37
2019-04-14T01:27:34.207Z,16.97
2019-04-14T01:30:06.665Z,16.77
2019-04-14T01:32:35.523Z,17.12
2019-04-14T01:35:05.359Z,17.87
2019-04-14T01:37:35.369Z,17.93
2019-04-14T01:40:05.317Z,17.42
2019-04-14T01:42:33.989Z,18.67
2019-04-14T01:45:03.632Z,18.07
2019-04-14T01:47:33.370Z,17.23
2019-04-14T01:50:02.417Z,16.60
2019-04-14T01:52:36.277Z,16.32
2019-04-14T01:55:26.876Z,17.30
2019-04-14T01:58:12.272Z,16.57
2019-04-14T02:00:46.663Z,16.53
2019-04-14T02:03:17.051Z,17.82
2019-04-14T02:05:45.942Z,18.17
2019-04-14T02:08:15.481Z,18.67
2019-04-14T02:10:45.515Z,17.73
2019-04-14T02:13:15.660Z,17.32
2019-04-14T02:15:44.559Z,17.37
2019-04-14T02:18:14.261Z,17.67
2019-04-14T02:20:43.191Z,17.42
2019-04-14T02:23:12.552Z,17.07
2019-04-14T02:25:42.793Z,16.75
2019-04-14T02:28:11.738Z,16.57
2019-04-14T02:30:49.319Z,17.30
2019-04-14T02:33:38.988Z,16.75
2019-04-14T02:36:14.201Z,16.85
2019-04-14T02:38:48.467Z,16.65
2019-04-14T02:41:15.634Z,17.27
2019-04-14T02:43:58.049Z,17.65
2019-04-14T02:48:44.190Z,15.63
2019-04-14T02:51:13.825Z,16.60
2019-04-14T02:53:44.455Z,17.90
2019-04-14T02:56:16.107Z,18.25
2019-04-14T03:01:15.867Z,18.57
2019-04-14T03:03:41.563Z,17.55
2019-04-14T03:08:54.451Z,19.12
2019-04-14T03:11:11.681Z,18.52
2019-04-14T03:13:58.452Z,18.05
2019-04-14T03:16:23.316Z,18.00
2019-04-14T03:18:50.606Z,19.17
2019-04-14T03:21:34.659Z,18.32
2019-04-14T03:26:41.936Z,18.40
2019-04-14T03:29:21.149Z,17.50
2019-04-14T03:34:33.828Z,18.05
2019-04-14T03:39:26.823Z,17.55
2019-04-14T03:41:52.773Z,18.02
2019-04-14T03:44:29.567Z,20.08
2019-04-14T03:46:55.467Z,16.90
2019-04-14T03:51:59.555Z,18.95
2019-04-14T03:54:20.154Z,18.27
2019-04-14T03:56:47.235Z,19.07
2019-04-14T03:59:17.489Z,18.45
2019-04-14T04:01:46.392Z,18.27
2019-04-14T04:04:16.070Z,17.98
2019-04-14T04:06:46.293Z,17.87
2019-04-14T04:09:15.191Z,19.70
2019-04-14T04:11:43.834Z,19.42
2019-04-14T04:14:13.829Z,19.57
2019-04-14T04:16:57.286Z,18.25
2019-04-14T04:19:40.432Z,18.23
2019-04-14T04:22:17.224Z,20.12
2019-04-14T04:24:52.060Z,18.87
2019-04-14T04:27:25.434Z,18.77
2019-04-14T04:30:03.774Z,19.65
2019-04-14T04:32:36.645Z,19.57
2019-04-14T04:35:10.725Z,20.43
2019-04-14T04:37:41.382Z,18.77
2019-04-14T04:40:11.846Z,18.92
2019-04-14T04:42:41.530Z,18.92
2019-04-14T04:45:10.425Z,18.27
2019-04-14T04:47:40.438Z,19.98
2019-04-14T04:50:10.681Z,18.60
2019-04-14T04:52:40.687Z,18.25
2019-04-14T04:55:09.712Z,19.77
2019-04-14T04:57:39.461Z,19.82
2019-04-14T05:00:11.530Z,19.90
2019-04-14T05:02:40.260Z,20.68
2019-04-14T05:05:45.424Z,19.52
2019-04-14T05:08:15.093Z,19.32
2019-04-14T05:10:54.600Z,19.25
2019-04-14T05:13:24.851Z,19.17
2019-04-14T05:15:55.291Z,18.67
2019-04-14T05:18:24.658Z,18.92
2019-04-14T05:20:53.780Z,18.70
2019-04-14T05:23:23.489Z,19.15
2019-04-14T05:25:53.761Z,18.80
2019-04-14T05:28:22.528Z,17.80
2019-04-14T05:30:52.426Z,19.93
2019-04-14T05:33:22.812Z,18.40
2019-04-14T05:35:51.664Z,19.57
2019-04-14T05:38:21.202Z,18.47
2019-04-14T05:40:51.790Z,18.00
2019-04-14T05:43:30.320Z,17.60
2019-04-14T05:45:52.226Z,18.50
2019-04-14T05:48:21.083Z,17.17
2019-04-14T05:50:51.158Z,18.10
2019-04-14T05:53:20.034Z,19.62
2019-04-14T05:55:48.759Z,19.00
2019-04-14T05:58:18.484Z,18.00
2019-04-14T06:00:47.687Z,20.10
2019-04-14T06:03:16.750Z,19.73
2019-04-14T06:05:46.338Z,18.43
2019-04-14T06:08:15.059Z,18.80
2019-04-14T06:10:43.810Z,19.15
2019-04-14T06:13:12.595Z,18.30
2019-04-14T06:15:41.285Z,20.70
2019-04-14T06:18:10.058Z,18.90
2019-04-14T06:20:38.689Z,20.90
2019-04-14T06:23:07.386Z,18.43
2019-04-14T06:25:36.491Z,19.10
2019-04-14T06:28:05.336Z,18.87
2019-04-14T06:30:47.695Z,19.17
2019-04-14T06:33:20.871Z,17.93
2019-04-14T06:35:57.957Z,18.73
2019-04-14T06:38:28.484Z,19.50
2019-04-14T06:41:02.067Z,17.53
2019-04-14T06:43:30.831Z,19.03
2019-04-14T06:46:00.105Z,18.93
2019-04-14T06:48:28.777Z,18.87
2019-04-14T06:50:57.554Z,20.07
2019-04-14T06:53:26.298Z,19.73
2019-04-14T06:55:55.212Z,20.70
2019-04-14T06:58:24.000Z,18.50
2019-04-14T07:00:52.812Z,19.30
2019-04-14T07:03:21.560Z,18.93
2019-04-14T07:05:50.258Z,19.47
2019-04-14T07:08:18.912Z,19.73
2019-04-14T07:10:47.603Z,19.90
2019-04-14T07:13:19.257Z,19.13
2019-04-14T07:15:46.648Z,19.57
2019-04-14T07:18:15.416Z,18.73
2019-04-14T07:20:44.196Z,20.00
2019-04-14T07:23:12.797Z,17.70
2019-04-14T07:25:41.551Z,18.93
2019-04-14T07:28:10.281Z,15.30
2019-04-14T07:30:55.876Z,15.53
2019-04-14T07:33:41.266Z,18.17
2019-04-14T07:36:11.683Z,17.07
2019-04-14T07:38:48.896Z,17.47
2019-04-14T07:41:28.333Z,17.87
2019-04-14T07:44:04.684Z,15.43
2019-04-14T07:46:34.981Z,16.77
2019-04-14T07:49:20.610Z,15.10
2019-04-14T07:51:57.695Z,13.13
2019-04-14T07:54:41.303Z,11.97
2019-04-14T07:57:14.931Z,11.87
2019-04-14T07:59:45.358Z,12.73
2019-04-14T08:02:30.604Z,12.17
2019-04-14T08:05:03.794Z,12.73
2019-04-14T08:07:33.031Z,13.87
2019-04-14T08:10:01.933Z,13.20
2019-04-14T08:12:30.858Z,14.67
2019-04-14T08:14:59.492Z,12.53
2019-04-14T08:17:28.249Z,11.13
2019-04-14T08:19:57.040Z,11.10
2019-04-14T08:22:25.655Z,12.23
2019-04-14T08:24:54.271Z,12.37
2019-04-14T08:27:22.838Z,12.50
2019-04-14T08:29:51.524Z,12.10
2019-04-14T08:32:20.383Z,11.50
2019-04-14T08:34:50.662Z,9.30
2019-04-14T08:37:19.332Z,11.40
2019-04-14T08:39:48.086Z,10.77
2019-04-14T08:42:21.121Z,10.53
2019-04-14T08:44:51.529Z,12.23
2019-04-14T08:47:27.757Z,10.73
2019-04-14T08:49:58.185Z,12.37
2019-04-14T08:52:31.073Z,13.27
2019-04-14T08:55:16.756Z,10.80
2019-04-14T08:57:52.860Z,11.93
2019-04-14T09:00:39.629Z,11.43
2019-04-14T09:03:11.592Z,10.37
2019-04-14T09:05:58.465Z,10.83
2019-04-14T09:08:28.702Z,11.67
2019-04-14T09:11:11.398Z,11.30
2019-04-14T09:13:40.041Z,10.30
2019-04-14T09:16:08.781Z,9.97
2019-04-14T09:18:37.552Z,10.60
2019-04-14T09:21:06.305Z,10.90
2019-04-14T09:23:35.111Z,10.43
2019-04-14T09:26:03.916Z,9.97
2019-04-14T09:28:32.726Z,10.57
2019-04-14T09:31:01.704Z,9.67
2019-04-14T09:33:30.563Z,10.00
2019-04-14T09:35:59.628Z,10.57
2019-04-14T09:38:28.547Z,9.77
2019-04-14T09:40:57.471Z,10.37
2019-04-14T09:43:26.164Z,10.67
2019-04-14T09:45:54.847Z,9.50
2019-04-14T09:48:23.725Z,8.67
2019-04-14T09:51:03.938Z,10.70
2019-04-14T09:53:23.158Z,10.83
2019-04-14T09:55:52.256Z,11.00
2019-04-14T09:58:21.560Z,10.37
2019-04-14T10:00:51.960Z,11.33
2019-04-14T10:03:21.193Z,12.03
2019-04-14T10:05:50.181Z,11.43
2019-04-14T10:08:19.276Z,11.40
2019-04-14T10:10:48.256Z,11.17
2019-04-14T10:13:17.065Z,11.50
2019-04-14T10:15:46.627Z,8.77
2019-04-14T10:18:16.507Z,9.40
2019-04-14T10:20:45.781Z,12.03
2019-04-14T10:23:14.544Z,8.10
2019-04-14T10:25:43.367Z,10.13
2019-04-14T10:28:12.464Z,13.77
2019-04-14T10:30:41.398Z,11.60
2019-04-14T10:33:10.257Z,12.60
2019-04-14T10:35:41.038Z,12.77
2019-04-14T10:38:09.932Z,12.17
2019-04-14T10:40:38.751Z,9.30
2019-04-14T10:43:07.407Z,12.03
2019-04-14T10:45:36.337Z,13.20
2019-04-14T10:48:05.601Z,14.23
2019-04-14T10:50:34.546Z,11.07
2019-04-14T10:53:03.290Z,13.73
2019-04-14T10:55:32.180Z,13.07
2019-04-14T10:58:01.023Z,12.53
2019-04-14T11:00:30.087Z,13.20
2019-04-14T11:02:58.971Z,13.73
2019-04-14T11:05:29.693Z,11.83
2019-04-14T11:07:58.480Z,13.47
2019-04-14T11:10:27.322Z,13.77
2019-04-14T11:12:56.197Z,11.17
2019-04-14T11:15:25.085Z,12.63
2019-04-14T11:17:53.982Z,12.60
2019-04-14T11:20:23.660Z,14.07
2019-04-14T11:23:03.282Z,12.07
2019-04-14T11:25:27.806Z,12.00
2019-04-14T11:27:56.524Z,11.70
2019-04-14T11:30:25.718Z,12.90
2019-04-14T11:33:08.122Z,11.90
2019-04-14T11:35:38.846Z,12.37
2019-04-14T11:38:15.157Z,12.20
2019-04-14T11:40:48.929Z,13.23
2019-04-14T11:43:17.740Z,12.73
2019-04-14T11:45:46.918Z,13.00
2019-04-14T11:48:15.808Z,11.60
2019-04-14T11:50:44.812Z,11.80
2019-04-14T11:53:13.661Z,11.60
2019-04-14T11:55:42.362Z,12.20
2019-04-14T11:58:11.106Z,11.57
2019-04-14T12:00:57.958Z,12.47
2019-04-14T12:03:32.444Z,11.83
2019-04-14T12:06:18.158Z,9.83
2019-04-14T12:08:51.480Z,12.70
2019-04-14T12:11:20.696Z,12.37
2019-04-14T12:13:49.788Z,11.17
2019-04-14T12:16:18.676Z,12.40
2019-04-14T12:18:47.460Z,11.27
2019-04-14T12:21:16.329Z,9.37
2019-04-14T12:23:45.118Z,11.43
2019-04-14T12:26:14.117Z,11.00
2019-04-14T12:28:42.982Z,10.07
2019-04-14T12:31:13.039Z,11.87
2019-04-14T12:33:41.946Z,10.33
2019-04-14T12:36:15.546Z,11.17
2019-04-14T12:38:44.441Z,10.10
2019-04-14T12:41:15.424Z,10.27
2019-04-14T12:43:46.317Z,9.53
2019-04-14T12:46:28.719Z,9.83
2019-04-14T12:49:04.713Z,10.10
2019-04-14T12:51:37.857Z,9.97
2019-04-14T12:54:09.437Z,10.83
2019-04-14T12:56:38.283Z,10.67
2019-04-14T12:59:08.652Z,10.67
2019-04-14T13:01:42.557Z,9.97
2019-04-14T13:04:12.791Z,7.93
2019-04-14T13:06:41.674Z,9.90
2019-04-14T13:09:10.772Z,10.07
2019-04-14T13:11:39.567Z,8.83
2019-04-14T13:14:08.548Z,8.53
2019-04-14T13:16:38.064Z,9.13
2019-04-14T13:19:06.961Z,9.60
2019-04-14T13:21:35.875Z,9.23
2019-04-14T13:24:04.871Z,8.83
2019-04-14T13:26:33.793Z,9.10
2019-04-14T13:29:03.388Z,8.30
2019-04-14T13:31:32.548Z,8.10
2019-04-14T13:34:01.427Z,8.57
2019-04-14T13:36:30.463Z,7.13
2019-04-14T13:38:59.279Z,6.33
2019-04-14T13:41:28.108Z,7.53
2019-04-14T13:43:57.218Z,6.90
2019-04-14T13:46:26.264Z,6.80
2019-04-14T13:48:55.057Z,6.27
2019-04-14T13:51:24.086Z,6.60
2019-04-14T13:53:54.209Z,6.53
2019-04-14T13:56:23.197Z,6.40
2019-04-14T13:58:52.197Z,6.40
2019-04-14T14:01:21.704Z,6.20
2019-04-14T14:03:51.209Z,6.57
2019-04-14T14:06:22.764Z,6.67
2019-04-14T14:08:51.631Z,7.13
2019-04-14T14:11:22.408Z,6.63
2019-04-14T14:14:01.753Z,5.40
2019-04-14T14:16:48.641Z,5.60
2019-04-14T14:19:25.110Z,5.57
2019-04-14T14:21:58.537Z,5.43
2019-04-14T14:24:29.250Z,5.20
2019-04-14T14:26:59.660Z,4.97
2019-04-14T14:29:29.414Z,4.43
2019-04-14T14:31:59.427Z,5.10
2019-04-14T14:34:28.393Z,4.80
2019-04-14T14:36:57.696Z,4.67
2019-04-14T14:39:26.560Z,5.10
2019-04-14T14:41:55.587Z,5.10
2019-04-14T14:44:26.345Z,4.80
2019-04-14T14:46:59.256Z,4.30
2019-04-14T14:49:44.632Z,5.07
2019-04-14T14:52:15.034Z,5.53
2019-04-14T14:54:43.982Z,4.47
2019-04-14T14:57:12.887Z,4.97
2019-04-14T14:59:41.854Z,4.37
2019-04-14T15:02:10.741Z,5.43
2019-04-14T15:04:39.672Z,4.80
2019-04-14T15:07:08.346Z,4.57
2019-04-14T15:09:37.262Z,5.93
2019-04-14T15:12:06.224Z,4.83
2019-04-14T15:14:35.059Z,4.97
2019-04-14T15:17:03.926Z,4.50
2019-04-14T15:19:32.569Z,4.73
2019-04-14T15:22:01.548Z,4.37
2019-04-14T15:24:30.550Z,4.80
2019-04-14T15:27:00.696Z,4.50
2019-04-14T15:29:29.573Z,5.00
2019-04-14T15:31:58.300Z,5.50
2019-04-14T15:34:27.608Z,5.77
2019-04-14T15:36:56.496Z,5.93
2019-04-14T15:39:25.181Z,5.47
2019-04-14T15:41:54.389Z,4.50
2019-04-14T15:44:23.073Z,5.37
2019-04-14T15:46:51.938Z,5.97
2019-04-14T15:49:20.842Z,6.67
2019-04-14T15:51:49.746Z,5.90
2019-04-14T15:54:18.827Z,6.30
2019-04-14T15:56:55.262Z,6.43
2019-04-14T15:59:31.949Z,5.57
2019-04-14T16:02:02.505Z,6.10
2019-04-14T16:04:36.121Z,5.93
2019-04-14T16:07:22.010Z,6.10
2019-04-14T16:10:10.358Z,6.37
2019-04-14T16:12:53.057Z,6.53
2019-04-14T16:15:23.596Z,5.77
2019-04-14T16:17:57.315Z,6.33
2019-04-14T16:20:30.785Z,6.37
2019-04-14T16:22:59.691Z,6.43
2019-04-14T16:25:42.625Z,5.87
2019-04-14T16:28:19.094Z,6.53
2019-04-14T16:30:59.041Z,6.83
2019-04-14T16:33:29.544Z,7.37
2019-04-14T16:35:59.692Z,6.57
2019-04-14T16:38:28.789Z,8.13
2019-04-14T16:40:57.887Z,7.27
2019-04-14T16:43:26.845Z,7.57
2019-04-14T16:45:56.080Z,7.77
2019-04-14T16:48:25.178Z,6.93
2019-04-14T16:50:54.274Z,6.70
2019-04-14T16:53:30.296Z,6.63
2019-04-14T16:56:03.935Z,6.43
2019-04-14T16:58:34.467Z,5.67
2019-04-14T17:01:21.595Z,7.67
2019-04-14T17:03:50.476Z,6.43
2019-04-14T17:06:19.574Z,7.00
2019-04-14T17:08:48.776Z,5.90
2019-04-14T17:11:17.766Z,6.70
2019-04-14T17:13:48.302Z,6.70
2019-04-14T17:16:25.088Z,6.40
2019-04-14T17:18:58.777Z,6.40
2019-04-14T17:21:42.007Z,6.80
2019-04-14T17:24:24.825Z,6.57
2019-04-14T17:26:58.123Z,8.07
2019-04-14T17:29:28.858Z,6.70
2019-04-14T17:31:59.488Z,7.37
2019-04-14T17:34:42.310Z,6.07
2019-04-14T17:37:16.114Z,6.37
2019-04-14T17:40:03.181Z,7.13
2019-04-14T17:42:33.764Z,7.10
2019-04-14T17:45:07.366Z,6.17
2019-04-14T17:47:40.771Z,6.80
2019-04-14T17:50:40.038Z,7.00
2019-04-14T17:53:00.566Z,6.40
2019-04-14T17:55:31.266Z,6.50
2019-04-14T17:58:01.892Z,6.80
2019-04-14T18:00:45.056Z,7.40
2019-04-14T18:03:32.025Z,6.87
2019-04-14T18:06:02.505Z,6.63
2019-04-14T18:08:33.128Z,6.77
2019-04-14T18:11:06.454Z,6.83
2019-04-14T18:13:42.902Z,7.30
2019-04-14T18:16:13.838Z,7.63
2019-04-14T18:18:47.442Z,6.67
2019-04-14T18:21:17.975Z,6.57
2019-04-14T18:23:47.067Z,6.67
2019-04-14T18:26:16.275Z,7.30
2019-04-14T18:28:49.944Z,7.20
2019-04-14T18:31:30.134Z,7.03
2019-04-14T18:34:12.277Z,7.03
2019-04-14T18:36:42.146Z,7.73
2019-04-14T18:39:31.134Z,7.13
2019-04-14T18:42:01.759Z,6.50
2019-04-14T18:44:33.810Z,7.10
2019-04-14T18:47:13.287Z,7.30
2019-04-14T18:49:52.692Z,7.27
2019-04-14T18:52:38.679Z,6.93
2019-04-14T18:55:25.698Z,7.70
2019-04-14T18:58:05.443Z,6.73
2019-04-14T19:00:35.976Z,6.97
2019-04-14T19:03:05.277Z,6.80
2019-04-14T19:05:34.236Z,6.63
2019-04-14T19:08:03.153Z,7.63
2019-04-14T19:10:32.363Z,7.83
2019-04-14T19:13:03.094Z,5.90
2019-04-14T19:15:48.989Z,6.30
2019-04-14T19:18:19.509Z,6.83
2019-04-14T19:20:50.050Z,6.90
2019-04-14T19:23:20.372Z,6.50
2019-04-14T19:25:49.262Z,7.00
2019-04-14T19:28:18.361Z,7.03
2019-04-14T19:30:47.458Z,7.37
2019-04-14T19:33:16.553Z,7.73
2019-04-14T19:35:46.065Z,7.03
2019-04-14T19:38:15.234Z,6.80
2019-04-14T19:40:44.254Z,7.17
2019-04-14T19:43:23.195Z,7.20
2019-04-14T19:45:43.679Z,7.53
2019-04-14T19:48:12.422Z,7.60
2019-04-14T19:50:41.146Z,6.80
2019-04-14T19:53:09.989Z,7.90
2019-04-14T19:55:38.899Z,7.40
2019-04-14T19:58:07.728Z,7.80
2019-04-14T20:00:36.437Z,7.50
2019-04-14T20:03:05.225Z,7.23
2019-04-14T20:05:34.065Z,8.00
2019-04-14T20:08:02.866Z,7.83
2019-04-14T20:10:31.714Z,8.33
2019-04-14T20:13:00.623Z,8.17
2019-04-14T20:15:30.992Z,8.40
2019-04-14T20:18:01.821Z,8.20
2019-04-14T20:20:47.239Z,7.53
2019-04-14T20:23:29.986Z,8.13
2019-04-14T20:26:03.279Z,7.93
2019-04-14T20:28:33.576Z,8.23
2019-04-14T20:31:10.117Z,8.67
2019-04-14T20:33:38.749Z,8.33
2019-04-14T20:36:07.902Z,9.97
2019-04-14T20:38:36.681Z,8.67
2019-04-14T20:41:05.486Z,9.17
2019-04-14T20:43:34.566Z,9.00
2019-04-14T20:46:03.470Z,8.60
2019-04-14T20:48:32.415Z,8.87
2019-04-14T20:51:01.136Z,8.60
2019-04-14T20:53:29.953Z,8.63
2019-04-14T20:55:58.838Z,9.20
2019-04-14T20:58:27.647Z,8.60
2019-04-14T21:00:56.721Z,8.97
2019-04-14T21:03:43.838Z,9.37
2019-04-14T21:06:14.247Z,9.07
2019-04-14T21:08:53.654Z,8.90
2019-04-14T21:11:23.995Z,9.17
2019-04-14T21:14:06.543Z,9.13
2019-04-14T21:16:37.040Z,9.50
2019-04-14T21:19:12.887Z,9.30
2019-04-14T21:21:43.283Z,9.33
2019-04-14T21:24:31.700Z,9.57
2019-04-14T21:27:18.578Z,9.47
2019-04-14T21:29:57.765Z,9.73
2019-04-14T21:32:28.179Z,9.60
2019-04-14T21:34:58.567Z,9.27
2019-04-14T21:37:41.184Z,10.03
2019-04-14T21:40:23.702Z,9.33
2019-04-14T21:42:52.477Z,9.37
2019-04-14T21:45:21.136Z,10.00
2019-04-14T21:47:49.995Z,10.00
2019-04-14T21:50:19.123Z,9.63
2019-04-14T21:52:49.828Z,10.17
2019-04-14T21:55:19.339Z,10.47
2019-04-14T21:57:49.719Z,10.07
2019-04-14T22:00:39.068Z,11.37
2019-04-14T22:03:25.950Z,10.57
2019-04-14T22:06:02.416Z,10.17
2019-04-14T22:08:50.998Z,10.07
2019-04-14T22:11:24.221Z,10.57
2019-04-14T22:13:53.056Z,10.63
2019-04-14T22:16:21.715Z,10.87
2019-04-14T22:18:50.589Z,10.17
2019-04-14T22:21:19.517Z,9.90
2019-04-14T22:24:00.288Z,10.27
2019-04-14T22:26:26.020Z,10.23
2019-04-14T22:28:50.267Z,9.30
2019-04-14T22:31:19.156Z,9.77
2019-04-14T22:33:47.894Z,10.20
2019-04-14T22:36:16.723Z,9.07
2019-04-14T22:38:45.485Z,10.03
2019-04-14T22:41:14.257Z,11.00
2019-04-14T22:43:43.147Z,9.67
2019-04-14T22:46:11.928Z,9.97
2019-04-14T22:48:40.473Z,10.03
2019-04-14T22:51:09.507Z,10.67
2019-04-14T22:53:38.257Z,10.47
2019-04-14T22:56:07.362Z,9.87
2019-04-14T22:58:36.251Z,9.73
2019-04-14T23:01:09.702Z,10.40
2019-04-14T23:03:45.934Z,10.90
2019-04-14T23:06:19.087Z,11.10
2019-04-14T23:08:51.986Z,10.93
2019-04-14T23:11:40.375Z,9.93
2019-04-14T23:14:22.576Z,10.07
2019-04-14T23:17:09.147Z,9.97
2019-04-14T23:19:42.272Z,9.17
2019-04-14T23:22:18.816Z,9.97
2019-04-14T23:24:48.658Z,9.60
2019-04-14T23:27:17.410Z,10.67
2019-04-14T23:29:46.164Z,9.97
2019-04-14T23:32:15.047Z,10.23
2019-04-14T23:34:43.888Z,11.03
2019-04-14T23:37:12.990Z,10.50
2019-04-14T23:39:41.831Z,11.33
2019-04-14T23:42:10.766Z,10.70
2019-04-14T23:44:39.696Z,10.03
2019-04-14T23:47:08.881Z,9.80
2019-04-14T23:49:37.669Z,11.20
2019-04-14T23:52:06.550Z,10.33
2019-04-14T23:54:35.568Z,11.40
2019-04-14T23:57:06.008Z,11.83
2019-04-14T23:59:34.849Z,11.00
